Acme, Louisiana
Current Conditions -  °F | °C
As of 11:53 AM on Monday 26 Jan 2015 (Local Time) from KESF Reporting Station
Clear Clear  
Wind Chill: 57°   Ceiling: Unl
Heat Index: 57°   Visibility: 10mi
Dew Point: 34°   Wind: 7mph
Humidity: 42%   Direction: NA
Pressure: 30.16"   Gusts: NA
Location:  31.29°N, 91.82°W
Report Text: KESF 261753Z AUTO VRB06KT 10SM CLR 14/01 A3016 RMK AO2 SLP213 T01390011 10139 20039 58011
Loading
Personal Weather Stations






























Interactive Weather Map New forecast layout! Learn more

10-Day Weather Forecast

Advertisements
Track Severe Weather on mobile